createdAt,value
2018-04-07T00:00:32.937Z,6.30
2018-04-07T00:05:16.268Z,6.73
2018-04-07T00:09:59.587Z,6.90
2018-04-07T00:14:43.003Z,5.73
2018-04-07T00:19:26.296Z,7.57
2018-04-07T00:24:09.691Z,8.00
2018-04-07T00:28:53.060Z,5.40
2018-04-07T00:33:36.380Z,6.77
2018-04-07T00:38:19.674Z,8.97
2018-04-07T00:43:03.112Z,6.67
2018-04-07T00:47:46.456Z,7.83
2018-04-07T00:52:41.529Z,8.57
2018-04-07T00:57:24.843Z,9.03
2018-04-07T01:02:08.252Z,9.13
2018-04-07T01:06:51.616Z,8.60
2018-04-07T01:11:34.976Z,9.00
2018-04-07T01:16:18.342Z,9.30
2018-04-07T01:21:01.648Z,8.53
2018-04-07T01:25:45.019Z,10.17
2018-04-07T01:30:28.347Z,8.70
2018-04-07T01:35:11.656Z,8.27
2018-04-07T01:39:55.793Z,12.30
2018-04-07T01:44:39.090Z,9.83
2018-04-07T01:49:22.491Z,7.23
2018-04-07T01:54:05.912Z,7.67
2018-04-07T01:58:49.317Z,9.33
2018-04-07T02:03:32.784Z,9.90
2018-04-07T02:08:16.175Z,9.00
2018-04-07T02:12:59.522Z,11.10
2018-04-07T02:17:42.855Z,8.23
2018-04-07T02:22:26.288Z,10.70
2018-04-07T02:27:10.415Z,11.60
2018-04-07T02:31:53.720Z,10.37
2018-04-07T02:36:37.142Z,10.70
2018-04-07T02:41:20.522Z,8.20
2018-04-07T02:46:03.913Z,9.97
2018-04-07T02:50:47.521Z,11.53
2018-04-07T02:55:30.820Z,9.47
2018-04-07T03:00:14.900Z,11.37
2018-04-07T03:04:58.247Z,10.23
2018-04-07T03:09:41.825Z,9.17
2018-04-07T03:14:25.196Z,7.80
2018-04-07T03:19:08.517Z,9.30
2018-04-07T03:23:52.609Z,8.23
2018-04-07T03:28:36.137Z,9.07
2018-04-07T03:33:20.441Z,10.13
2018-04-07T03:38:03.812Z,11.37
2018-04-07T03:42:47.131Z,10.07
2018-04-07T03:47:30.422Z,7.27
2018-04-07T03:52:13.918Z,9.30
2018-04-07T03:56:57.279Z,9.57
2018-04-07T04:01:40.586Z,8.23
2018-04-07T04:06:23.912Z,8.80
2018-04-07T04:11:07.277Z,12.17
2018-04-07T04:15:50.662Z,12.30
2018-04-07T04:20:34.727Z,8.50
2018-04-07T04:25:18.068Z,12.23
2018-04-07T04:30:01.441Z,8.00
2018-04-07T04:34:44.818Z,10.57
2018-04-07T04:39:28.153Z,12.00
2018-04-07T04:44:12.346Z,11.37
2018-04-07T04:48:55.686Z,10.73
2018-04-07T04:53:39.061Z,10.07
2018-04-07T04:58:22.506Z,9.17
2018-04-07T05:03:07.045Z,11.13
2018-04-07T05:07:50.520Z,8.70
2018-04-07T05:12:34.003Z,7.83
2018-04-07T05:17:17.431Z,9.90
2018-04-07T05:22:00.753Z,11.40
2018-04-07T05:26:44.167Z,7.23
2018-04-07T05:31:27.796Z,9.40
2018-04-07T05:36:11.150Z,7.63
2018-04-07T05:40:55.674Z,9.00
2018-04-07T05:45:39.524Z,7.50
2018-04-07T05:50:22.872Z,9.07
2018-04-07T05:55:07.255Z,9.03
2018-04-07T05:59:50.590Z,7.80
2018-04-07T06:04:34.790Z,8.20
2018-04-07T06:09:18.175Z,10.17
2018-04-07T06:14:02.291Z,9.33
2018-04-07T06:18:45.601Z,8.13
2018-04-07T06:23:29.806Z,11.23
2018-04-07T06:28:13.234Z,7.43
2018-04-07T06:32:56.604Z,7.53
2018-04-07T06:37:40.277Z,8.30
2018-04-07T06:42:23.748Z,8.67
2018-04-07T06:47:07.139Z,7.03
2018-04-07T06:51:50.448Z,6.77
2018-04-07T06:56:34.030Z,10.30
2018-04-07T07:01:17.382Z,8.67
2018-04-07T07:06:01.482Z,8.47
2018-04-07T07:10:45.013Z,7.87
2018-04-07T07:15:29.409Z,8.43
2018-04-07T07:20:12.835Z,9.87
2018-04-07T07:24:56.535Z,8.27
2018-04-07T07:29:40.702Z,7.57
2018-04-07T07:34:24.814Z,9.00
2018-04-07T07:39:08.252Z,10.47
2018-04-07T07:43:51.711Z,8.00
2018-04-07T07:48:35.238Z,9.90
2018-04-07T07:53:18.674Z,6.87
2018-04-07T07:58:02.060Z,6.80
2018-04-07T08:02:45.374Z,7.43
2018-04-07T08:07:28.814Z,7.23
2018-04-07T08:12:12.175Z,7.50
2018-04-07T08:16:55.847Z,10.40
2018-04-07T08:21:39.288Z,7.37
2018-04-07T08:26:22.723Z,9.13
2018-04-07T08:31:06.275Z,6.67
2018-04-07T08:35:49.892Z,8.40
2018-04-07T08:40:33.471Z,6.60
2018-04-07T08:45:17.539Z,7.20
2018-04-07T08:50:01.893Z,7.70
2018-04-07T08:54:45.296Z,5.47
2018-04-07T08:59:28.747Z,7.17
2018-04-07T09:04:12.069Z,6.90
2018-04-07T09:08:55.570Z,6.27
2018-04-07T09:13:38.958Z,7.13
2018-04-07T09:18:22.397Z,9.03
2018-04-07T09:23:05.882Z,10.60
2018-04-07T09:27:49.967Z,9.10
2018-04-07T09:32:33.513Z,9.73
2018-04-07T09:37:16.959Z,7.50
2018-04-07T09:42:00.329Z,9.90
2018-04-07T09:46:43.853Z,7.47
2018-04-07T09:51:27.197Z,7.03
2018-04-07T09:56:10.548Z,8.27
2018-04-07T10:00:53.899Z,6.97
2018-04-07T10:05:37.348Z,7.00
2018-04-07T10:10:20.758Z,6.77
2018-04-07T10:15:04.089Z,5.03
2018-04-07T10:19:47.455Z,6.37
2018-04-07T10:24:31.694Z,6.47
2018-04-07T10:29:15.065Z,6.27
2018-04-07T10:33:58.499Z,4.90
2018-04-07T10:38:41.923Z,5.40
2018-04-07T10:43:25.312Z,5.17
2018-04-07T10:48:08.634Z,4.83
2018-04-07T10:52:51.957Z,9.73
2018-04-07T10:57:35.311Z,4.77
2018-04-07T11:02:18.646Z,6.07
2018-04-07T11:07:02.060Z,7.30
2018-04-07T11:11:45.441Z,5.97
2018-04-07T11:16:28.811Z,7.30
2018-04-07T11:21:12.194Z,5.77
2018-04-07T11:25:55.595Z,5.07
2018-04-07T11:30:39.001Z,7.03
2018-04-07T11:35:22.406Z,7.30
2018-04-07T11:40:05.754Z,5.67
2018-04-07T11:44:49.971Z,5.73
2018-04-07T11:49:34.164Z,6.30
2018-04-07T11:54:17.511Z,5.97
2018-04-07T11:59:01.050Z,8.10
2018-04-07T12:03:44.428Z,6.20
2018-04-07T12:08:27.806Z,5.93
2018-04-07T12:13:11.230Z,6.97
2018-04-07T12:17:54.602Z,6.40
2018-04-07T12:22:38.976Z,6.00
2018-04-07T12:27:33.390Z,5.60
2018-04-07T12:32:17.643Z,6.47
2018-04-07T12:37:00.990Z,5.60
2018-04-07T12:41:44.641Z,6.27
2018-04-07T12:46:28.105Z,6.33
2018-04-07T12:51:11.481Z,6.40
2018-04-07T12:55:54.832Z,6.70
2018-04-07T13:00:38.208Z,8.27
2018-04-07T13:05:21.602Z,7.03
2018-04-07T13:10:05.099Z,7.93
2018-04-07T13:14:48.613Z,9.03
2018-04-07T13:19:32.265Z,10.53
2018-04-07T13:24:15.784Z,8.87
2018-04-07T13:28:59.159Z,10.60
2018-04-07T13:33:42.587Z,10.57
2018-04-07T13:38:26.718Z,13.27
2018-04-07T13:43:10.858Z,10.53
2018-04-07T13:47:54.241Z,9.70
2018-04-07T13:52:37.747Z,11.40
2018-04-07T13:57:22.767Z,11.57
2018-04-07T14:02:06.872Z,11.30
2018-04-07T14:06:50.255Z,12.87
2018-04-07T14:11:33.659Z,12.83
2018-04-07T14:16:17.051Z,11.07
2018-04-07T14:21:01.260Z,13.10
2018-04-07T14:25:44.628Z,12.27
2018-04-07T14:30:28.063Z,13.17
2018-04-07T14:35:11.394Z,12.50
2018-04-07T14:39:54.868Z,14.13
2018-04-07T14:44:38.212Z,11.57
2018-04-07T14:49:22.515Z,11.27
2018-04-07T14:54:06.482Z,11.90
2018-04-07T14:58:49.785Z,12.83
2018-04-07T15:03:34.037Z,10.97
2018-04-07T15:08:18.177Z,12.93
2018-04-07T15:13:01.523Z,10.43
2018-04-07T15:17:44.927Z,11.53
2018-04-07T15:22:28.283Z,11.27
2018-04-07T15:27:11.681Z,9.67
2018-04-07T15:31:55.002Z,10.07
2018-04-07T15:36:39.183Z,9.10
2018-04-07T15:41:22.521Z,8.63
2018-04-07T15:46:05.919Z,9.17
2018-04-07T15:50:49.324Z,6.93
2018-04-07T15:55:32.663Z,8.00
2018-04-07T16:00:16.044Z,7.80
2018-04-07T16:04:59.482Z,13.53
2018-04-07T16:09:43.030Z,8.67
2018-04-07T16:14:26.457Z,6.40
2018-04-07T16:19:10.704Z,5.70
2018-04-07T16:23:54.058Z,5.13
2018-04-07T16:28:38.585Z,5.33
2018-04-07T16:33:21.997Z,7.60
2018-04-07T16:38:05.372Z,6.23
2018-04-07T16:42:49.380Z,7.50
2018-04-07T16:47:32.839Z,6.37
2018-04-07T16:52:16.278Z,6.90
2018-04-07T16:56:59.727Z,7.57
2018-04-07T17:01:43.281Z,7.63
2018-04-07T17:06:26.672Z,6.73
2018-04-07T17:11:10.031Z,6.67
2018-04-07T17:15:53.412Z,6.97
2018-04-07T17:20:39.687Z,7.10
2018-04-07T17:25:23.241Z,6.30
2018-04-07T17:30:07.472Z,6.43
2018-04-07T17:34:51.318Z,9.40
2018-04-07T17:39:34.690Z,7.07
2018-04-07T17:44:18.140Z,8.13
2018-04-07T17:49:06.098Z,5.97
2018-04-07T17:53:45.813Z,7.50
2018-04-07T17:58:32.655Z,8.33
2018-04-07T18:03:18.018Z,6.63
2018-04-07T18:08:02.776Z,6.90
2018-04-07T18:12:47.365Z,7.33
2018-04-07T18:17:30.747Z,6.57
2018-04-07T18:22:14.944Z,8.13
2018-04-07T18:26:58.331Z,8.97
2018-04-07T18:31:42.520Z,6.40
2018-04-07T18:36:25.888Z,9.27
2018-04-07T18:41:09.279Z,8.10
2018-04-07T18:45:52.618Z,8.17
2018-04-07T18:50:36.144Z,9.50
2018-04-07T18:55:20.342Z,7.93
2018-04-07T19:00:04.450Z,9.03
2018-04-07T19:04:48.778Z,8.23
2018-04-07T19:09:32.981Z,7.67
2018-04-07T19:14:16.512Z,8.43
2018-04-07T19:18:59.904Z,8.80
2018-04-07T19:23:44.049Z,10.20
2018-04-07T19:28:27.511Z,8.50
2018-04-07T19:33:10.900Z,7.80
2018-04-07T19:37:54.317Z,7.33
2018-04-07T19:42:37.703Z,9.27
2018-04-07T19:47:21.035Z,8.33
2018-04-07T19:52:04.507Z,11.37
2018-04-07T19:56:47.836Z,8.70
2018-04-07T20:01:31.177Z,8.80
2018-04-07T20:06:14.507Z,9.73
2018-04-07T20:10:57.964Z,9.80
2018-04-07T20:15:42.190Z,9.90
2018-04-07T20:20:33.944Z,11.33
2018-04-07T20:25:18.550Z,10.27
2018-04-07T20:30:02.711Z,11.07
2018-04-07T20:34:46.295Z,10.20
2018-04-07T20:39:29.678Z,10.30
2018-04-07T20:44:13.006Z,11.30
2018-04-07T20:48:56.355Z,13.30
2018-04-07T20:53:39.803Z,10.33
2018-04-07T20:58:24.002Z,11.87
2018-04-07T21:03:08.200Z,15.53
2018-04-07T21:07:52.270Z,13.13
2018-04-07T21:12:37.395Z,12.43
2018-04-07T21:17:21.545Z,14.57
2018-04-07T21:22:05.022Z,16.87
2018-04-07T21:26:48.642Z,13.00
2018-04-07T21:31:32.815Z,12.83
2018-04-07T21:36:16.174Z,14.67
2018-04-07T21:40:59.582Z,12.87
2018-04-07T21:45:43.697Z,14.30
2018-04-07T21:50:27.112Z,11.10
2018-04-07T21:55:10.492Z,12.57
2018-04-07T21:59:54.800Z,14.80
2018-04-07T22:04:39.855Z,14.70
2018-04-07T22:09:23.229Z,15.63
2018-04-07T22:14:07.341Z,12.30
2018-04-07T22:18:50.683Z,13.63
2018-04-07T22:23:34.021Z,13.40
2018-04-07T22:28:17.376Z,11.20
2018-04-07T22:33:01.765Z,10.67
2018-04-07T22:37:45.088Z,11.50
2018-04-07T22:42:29.383Z,10.97
2018-04-07T22:47:12.881Z,9.67
2018-04-07T22:51:56.987Z,12.10
2018-04-07T22:56:40.351Z,10.50
2018-04-07T23:01:23.756Z,11.63
2018-04-07T23:06:07.938Z,12.07
2018-04-07T23:10:51.238Z,9.90
2018-04-07T23:15:34.599Z,9.90
2018-04-07T23:20:18.082Z,11.80
2018-04-07T23:25:01.454Z,11.57
2018-04-07T23:29:44.830Z,10.03
2018-04-07T23:34:28.212Z,14.23
2018-04-07T23:39:11.543Z,10.07
2018-04-07T23:43:54.902Z,10.30
2018-04-07T23:48:38.331Z,11.50
2018-04-07T23:53:21.664Z,11.97
2018-04-07T23:58:05.158Z,13.07
